Аэропорт: Петропавловск. Петропавловск

ICAO: UACP

METAR:
2019-07-23 18:30:00
UACP 231830Z 29003MPS 9999 -SHRA BKN005 OVC033CB 17/17 Q1004 NOSIG RMK QBB170 QFE741/0988
METAR:
2019-07-23 08:01:00
TAF UACP 230801Z 2309/2318 29004MPS 9999 BKN030CB TEMPO 2309/2312 31006MPS -TSRA BKN020CB